sensor_id;sensor_type;location;lat;lon;timestamp;pressure;altitude;pressure_sealevel;temperature;humidity
36354;BME280;22383;51.114;13.666;2023-03-01T00:01:42;66780.72;;;-3.80;100.00
36354;BME280;22383;51.114;13.666;2023-03-01T00:04:10;66774.53;;;-3.86;100.00
36354;BME280;22383;51.114;13.666;2023-03-01T00:06:38;66766.38;;;-3.91;100.00
36354;BME280;22383;51.114;13.666;2023-03-01T00:09:08;66769.88;;;-3.92;100.00
36354;BME280;22383;51.114;13.666;2023-03-01T00:11:40;66764.25;;;-3.97;100.00
36354;BME280;22383;51.114;13.666;2023-03-01T00:14:10;66759.44;;;-4.00;100.00
36354;BME280;22383;51.114;13.666;2023-03-01T00:16:40;66754.59;;;-4.02;100.00
36354;BME280;22383;51.114;13.666;2023-03-01T00:19:11;66755.28;;;-4.06;100.00
36354;BME280;22383;51.114;13.666;2023-03-01T00:21:42;66748.78;;;-4.09;100.00
36354;BME280;22383;51.114;13.666;2023-03-01T00:24:11;66749.69;;;-4.11;100.00
36354;BME280;22383;51.114;13.666;2023-03-01T00:26:38;66738.94;;;-4.16;100.00
36354;BME280;22383;51.114;13.666;2023-03-01T00:29:05;66735.16;;;-4.24;100.00
36354;BME280;22383;51.114;13.666;2023-03-01T00:31:34;66727.53;;;-4.29;100.00
36354;BME280;22383;51.114;13.666;2023-03-01T00:34:05;66731.22;;;-4.28;100.00
36354;BME280;22383;51.114;13.666;2023-03-01T00:36:37;66729.56;;;-4.29;100.00
36354;BME280;22383;51.114;13.666;2023-03-01T00:39:17;66721.94;;;-4.34;100.00
36354;BME280;22383;51.114;13.666;2023-03-01T00:41:45;66720.03;;;-4.38;100.00
36354;BME280;22383;51.114;13.666;2023-03-01T00:44:13;66716.66;;;-4.41;100.00
36354;BME280;22383;51.114;13.666;2023-03-01T00:46:41;66711.84;;;-4.43;100.00
36354;BME280;22383;51.114;13.666;2023-03-01T00:49:15;66712.41;;;-4.43;100.00
36354;BME280;22383;51.114;13.666;2023-03-01T00:51:42;66710.38;;;-4.42;100.00
36354;BME280;22383;51.114;13.666;2023-03-01T00:54:10;66703.66;;;-4.48;100.00
36354;BME280;22383;51.114;13.666;2023-03-01T00:56:37;66712.06;;;-4.41;100.00
36354;BME280;22383;51.114;13.666;2023-03-01T00:59:04;66702.34;;;-4.52;100.00
36354;BME280;22383;51.114;13.666;2023-03-01T01:01:31;66695.25;;;-4.56;100.00
36354;BME280;22383;51.114;13.666;2023-03-01T01:04:12;66692.81;;;-4.61;100.00
36354;BME280;22383;51.114;13.666;2023-03-01T01:06:52;66686.88;;;-4.64;100.00
36354;BME280;22383;51.114;13.666;2023-03-01T01:09:19;66643.34;;;-4.66;100.00
36354;BME280;22383;51.114;13.666;2023-03-01T01:11:48;66690.00;;;-4.63;100.00
36354;BME280;22383;51.114;13.666;2023-03-01T01:14:17;66693.16;;;-4.63;100.00
36354;BME280;22383;51.114;13.666;2023-03-01T01:16:49;66686.44;;;-4.69;100.00
36354;BME280;22383;51.114;13.666;2023-03-01T01:19:16;66674.00;;;-4.76;100.00
36354;BME280;22383;51.114;13.666;2023-03-01T01:21:44;66674.91;;;-4.77;100.00
36354;BME280;22383;51.114;13.666;2023-03-01T01:24:15;66673.22;;;-4.79;100.00
36354;BME280;22383;51.114;13.666;2023-03-01T01:26:45;66674.69;;;-4.80;100.00
36354;BME280;22383;51.114;13.666;2023-03-01T01:29:17;66670.66;;;-4.79;100.00
36354;BME280;22383;51.114;13.666;2023-03-01T01:31:46;66677.91;;;-4.72;100.00
36354;BME280;22383;51.114;13.666;2023-03-01T01:34:19;66683.66;;;-4.71;100.00
36354;BME280;22383;51.114;13.666;2023-03-01T01:36:52;66672.91;;;-4.77;100.00
36354;BME280;22383;51.114;13.666;2023-03-01T01:39:21;66668.97;;;-4.80;100.00
36354;BME280;22383;51.114;13.666;2023-03-01T01:41:48;66667.97;;;-4.86;100.00
36354;BME280;22383;51.114;13.666;2023-03-01T01:44:24;66671.78;;;-4.78;100.00
36354;BME280;22383;51.114;13.666;2023-03-01T01:47:01;66676.59;;;-4.76;100.00
36354;BME280;22383;51.114;13.666;2023-03-01T01:49:56;66678.81;;;-4.73;100.00
36354;BME280;22383;51.114;13.666;2023-03-01T01:52:31;66673.44;;;-4.76;100.00
36354;BME280;22383;51.114;13.666;2023-03-01T01:57:37;66615.03;;;-4.89;100.00
36354;BME280;22383;51.114;13.666;2023-03-01T02:00:16;66660.72;;;-4.92;100.00
36354;BME280;22383;51.114;13.666;2023-03-01T02:02:47;66615.19;;;-4.94;100.00
36354;BME280;22383;51.114;13.666;2023-03-01T02:08:12;66652.88;;;-5.00;100.00
36354;BME280;22383;51.114;13.666;2023-03-01T02:10:40;66643.34;;;-5.08;100.00
36354;BME280;22383;51.114;13.666;2023-03-01T02:13:09;66639.66;;;-5.09;100.00
36354;BME280;22383;51.114;13.666;2023-03-01T02:15:38;66640.00;;;-5.11;100.00
36354;BME280;22383;51.114;13.666;2023-03-01T02:18:07;66589.88;;;-5.13;100.00
36354;BME280;22383;51.114;13.666;2023-03-01T02:20:58;66637.44;;;-5.11;100.00
36354;BME280;22383;51.114;13.666;2023-03-01T02:23:30;66637.22;;;-5.14;100.00
36354;BME280;22383;51.114;13.666;2023-03-01T02:26:19;66632.75;;;-5.18;100.00
36354;BME280;22383;51.114;13.666;2023-03-01T02:28:48;66624.22;;;-5.21;100.00
36354;BME280;22383;51.114;13.666;2023-03-01T02:31:18;66628.81;;;-5.22;100.00
36354;BME280;22383;51.114;13.666;2023-03-01T02:34:07;66622.09;;;-5.28;100.00
36354;BME280;22383;51.114;13.666;2023-03-01T02:36:39;66613.03;;;-5.32;100.00
36354;BME280;22383;51.114;13.666;2023-03-01T02:39:13;66565.28;;;-5.35;100.00
36354;BME280;22383;51.114;13.666;2023-03-01T02:41:51;66607.78;;;-5.39;100.00
36354;BME280;22383;51.114;13.666;2023-03-01T02:44:21;66609.25;;;-5.40;100.00
36354;BME280;22383;51.114;13.666;2023-03-01T02:46:55;66606.09;;;-5.40;100.00
36354;BME280;22383;51.114;13.666;2023-03-01T02:49:29;66604.78;;;-5.44;100.00
36354;BME280;22383;51.114;13.666;2023-03-01T02:55:10;66594.38;;;-5.51;100.00
36354;BME280;22383;51.114;13.666;2023-03-01T02:57:42;66589.91;;;-5.55;100.00
36354;BME280;22383;51.114;13.666;2023-03-01T03:00:21;66540.50;;;-5.60;100.00
36354;BME280;22383;51.114;13.666;2023-03-01T03:02:53;66576.81;;;-5.70;100.00
36354;BME280;22383;51.114;13.666;2023-03-01T03:05:26;66523.38;;;-5.74;100.00
36354;BME280;22383;51.114;13.666;2023-03-01T03:07:57;66566.97;;;-5.76;100.00
36354;BME280;22383;51.114;13.666;2023-03-01T03:10:38;66566.97;;;-5.76;100.00
36354;BME280;22383;51.114;13.666;2023-03-01T03:13:12;66599.75;;;-5.48;100.00
36354;BME280;22383;51.114;13.666;2023-03-01T03:15:42;66575.25;;;-5.64;100.00
36354;BME280;22383;51.114;13.666;2023-03-01T03:18:13;66574.25;;;-5.70;100.00
36354;BME280;22383;51.114;13.666;2023-03-01T03:20:42;66572.56;;;-5.71;100.00
36354;BME280;22383;51.114;13.666;2023-03-01T03:23:10;66568.66;;;-5.75;100.00
36354;BME280;22383;51.114;13.666;2023-03-01T03:25:37;66571.22;;;-5.75;100.00
36354;BME280;22383;51.114;13.666;2023-03-01T03:28:05;66567.75;;;-5.73;100.00
36354;BME280;22383;51.114;13.666;2023-03-01T03:30:43;66572.34;;;-5.74;100.00
36354;BME280;22383;51.114;13.666;2023-03-01T03:33:19;66569.75;;;-5.74;100.00
36354;BME280;22383;51.114;13.666;2023-03-01T03:35:50;66520.03;;;-5.77;100.00
36354;BME280;22383;51.114;13.666;2023-03-01T03:38:24;66563.81;;;-5.77;100.00
36354;BME280;22383;51.114;13.666;2023-03-01T03:41:02;66565.50;;;-5.75;100.00
36354;BME280;22383;51.114;13.666;2023-03-01T03:43:34;66522.28;;;-5.75;100.00
36354;BME280;22383;51.114;13.666;2023-03-01T03:46:03;66567.88;;;-5.78;100.00
36354;BME280;22383;51.114;13.666;2023-03-01T03:48:43;66517.25;;;-5.79;100.00
36354;BME280;22383;51.114;13.666;2023-03-01T03:51:30;66554.91;;;-5.85;100.00
36354;BME280;22383;51.114;13.666;2023-03-01T03:54:12;66552.66;;;-5.87;100.00
36354;BME280;22383;51.114;13.666;2023-03-01T03:56:39;66556.34;;;-5.86;100.00
36354;BME280;22383;51.114;13.666;2023-03-01T03:59:06;66514.78;;;-5.84;100.00
36354;BME280;22383;51.114;13.666;2023-03-01T04:01:34;66561.72;;;-5.83;100.00
36354;BME280;22383;51.114;13.666;2023-03-01T04:04:01;66559.16;;;-5.83;100.00
36354;BME280;22383;51.114;13.666;2023-03-01T04:06:31;66556.34;;;-5.86;100.00
36354;BME280;22383;51.114;13.666;2023-03-01T04:08:58;66554.13;;;-5.88;100.00
36354;BME280;22383;51.114;13.666;2023-03-01T04:11:29;66545.75;;;-5.96;100.00
36354;BME280;22383;51.114;13.666;2023-03-01T04:13:57;66497.16;;;-5.98;100.00
36354;BME280;22383;51.114;13.666;2023-03-01T04:16:25;66543.50;;;-5.98;100.00
36354;BME280;22383;51.114;13.666;2023-03-01T04:18:53;66545.75;;;-5.96;100.00
36354;BME280;22383;51.114;13.666;2023-03-01T04:21:20;66546.84;;;-5.95;100.00
36354;BME280;22383;51.114;13.666;2023-03-01T04:23:47;66546.84;;;-5.95;100.00
36354;BME280;22383;51.114;13.666;2023-03-01T04:26:15;66539.38;;;-6.04;100.00
36354;BME280;22383;51.114;13.666;2023-03-01T04:28:42;66529.34;;;-6.13;100.00
36354;BME280;22383;51.114;13.666;2023-03-01T04:31:15;66537.94;;;-6.03;100.00
36354;BME280;22383;51.114;13.666;2023-03-01T04:36:15;66483.75;;;-6.10;100.00
36354;BME280;22383;51.114;13.666;2023-03-01T04:38:43;66522.84;;;-6.17;100.00
36354;BME280;22383;51.114;13.666;2023-03-01T04:41:17;66516.13;;;-6.23;100.00
36354;BME280;22383;51.114;13.666;2023-03-01T04:43:45;66524.84;;;-6.17;100.00
36354;BME280;22383;51.114;13.666;2023-03-01T04:46:14;66523.94;;;-6.16;100.00
36354;BME280;22383;51.114;13.666;2023-03-01T04:48:44;66527.09;;;-6.15;100.00
36354;BME280;22383;51.114;13.666;2023-03-01T04:51:11;66513.56;;;-6.23;100.00
36354;BME280;22383;51.114;13.666;2023-03-01T04:53:41;66465.34;;;-6.27;100.00
36354;BME280;22383;51.114;13.666;2023-03-01T04:56:09;66464.75;;;-6.28;100.00
36354;BME280;22383;51.114;13.666;2023-03-01T04:58:36;66504.19;;;-6.36;100.00
36354;BME280;22383;51.114;13.666;2023-03-01T05:01:11;66452.28;;;-6.41;100.00
36354;BME280;22383;51.114;13.666;2023-03-01T05:03:44;66490.44;;;-6.47;100.00
36354;BME280;22383;51.114;13.666;2023-03-01T05:06:12;66444.44;;;-6.49;100.00
36354;BME280;22383;51.114;13.666;2023-03-01T05:08:40;66435.19;;;-6.55;100.00
36354;BME280;22383;51.114;13.666;2023-03-01T05:11:08;66482.63;;;-6.54;100.00
36354;BME280;22383;51.114;13.666;2023-03-01T05:13:37;66495.78;;;-6.44;100.00
36354;BME280;22383;51.114;13.666;2023-03-01T05:16:06;66451.38;;;-6.40;100.00
36354;BME280;22383;51.114;13.666;2023-03-01T05:18:33;66500.84;;;-6.39;100.00
36354;BME280;22383;51.114;13.666;2023-03-01T05:21:13;66448.59;;;-6.42;100.00
36354;BME280;22383;51.114;13.666;2023-03-01T05:23:43;66494.69;;;-6.45;100.00
36354;BME280;22383;51.114;13.666;2023-03-01T05:26:10;66488.19;;;-6.49;100.00
36354;BME280;22383;51.114;13.666;2023-03-01T05:28:54;66484.63;;;-6.54;100.00
36354;BME280;22383;51.114;13.666;2023-03-01T05:31:26;66470.31;;;-6.65;100.00
36354;BME280;22383;51.114;13.666;2023-03-01T05:33:54;66456.03;;;-6.76;100.00
36354;BME280;22383;51.114;13.666;2023-03-01T05:36:21;66411.75;;;-6.76;100.00
36354;BME280;22383;51.114;13.666;2023-03-01T05:38:48;66425.13;;;-6.64;100.00
36354;BME280;22383;51.114;13.666;2023-03-01T05:41:15;66478.47;;;-6.60;100.00
36354;BME280;22383;51.114;13.666;2023-03-01T05:43:44;66482.94;;;-6.56;100.00
36354;BME280;22383;51.114;13.666;2023-03-01T05:46:12;66482.06;;;-6.54;100.00
36354;BME280;22383;51.114;13.666;2023-03-01T05:48:40;66483.53;;;-6.55;100.00
36354;BME280;22383;51.114;13.666;2023-03-01T05:51:07;66481.28;;;-6.57;100.00
36354;BME280;22383;51.114;13.666;2023-03-01T05:53:34;66478.72;;;-6.57;100.00
36354;BME280;22383;51.114;13.666;2023-03-01T05:56:05;66429.03;;;-6.60;100.00
36354;BME280;22383;51.114;13.666;2023-03-01T05:58:33;66472.91;;;-6.65;100.00
36354;BME280;22383;51.114;13.666;2023-03-01T06:01:00;66475.13;;;-6.63;100.00
36354;BME280;22383;51.114;13.666;2023-03-01T06:03:27;66471.66;;;-6.61;100.00
36354;BME280;22383;51.114;13.666;2023-03-01T06:05:57;66430.72;;;-6.59;100.00
36354;BME280;22383;51.114;13.666;2023-03-01T06:08:25;66480.16;;;-6.58;100.00
36354;BME280;22383;51.114;13.666;2023-03-01T06:10:54;66480.38;;;-6.56;100.00
36354;BME280;22383;51.114;13.666;2023-03-01T06:13:22;66477.03;;;-6.59;100.00
36354;BME280;22383;51.114;13.666;2023-03-01T06:15:50;66427.38;;;-6.62;100.00
36354;BME280;22383;51.114;13.666;2023-03-01T06:18:18;66465.19;;;-6.65;100.00
36354;BME280;22383;51.114;13.666;2023-03-01T06:20:52;66424.56;;;-6.65;100.00
36354;BME280;22383;51.114;13.666;2023-03-01T06:23:21;66469.97;;;-6.63;100.00
36354;BME280;22383;51.114;13.666;2023-03-01T06:25:48;66476.13;;;-6.57;100.00
36354;BME280;22383;51.114;13.666;2023-03-01T06:28:16;66443.88;;;-6.49;100.00
36354;BME280;22383;51.114;13.666;2023-03-01T06:30:43;66506.44;;;-6.34;100.00
36354;BME280;22383;51.114;13.666;2023-03-01T06:33:10;66513.91;;;-6.25;100.00
36354;BME280;22383;51.114;13.666;2023-03-01T06:35:37;66520.03;;;-6.19;100.00
36354;BME280;22383;51.114;13.666;2023-03-01T06:38:05;66520.94;;;-6.21;100.00
36354;BME280;22383;51.114;13.666;2023-03-01T06:40:33;66523.16;;;-6.19;100.00
36354;BME280;22383;51.114;13.666;2023-03-01T06:43:02;66477.41;;;-6.18;100.00
36354;BME280;22383;51.114;13.666;2023-03-01T06:45:29;66527.31;;;-6.13;100.00
36354;BME280;22383;51.114;13.666;2023-03-01T06:48:06;66537.72;;;-6.05;100.00
36354;BME280;22383;51.114;13.666;2023-03-01T06:50:34;66548.88;;;-5.95;100.00
36354;BME280;22383;51.114;13.666;2023-03-01T06:53:02;66574.81;;;-5.69;100.00
36354;BME280;22383;51.114;13.666;2023-03-01T06:55:29;66602.19;;;-5.44;100.00
36354;BME280;22383;51.114;13.666;2023-03-01T06:58:01;66605.00;;;-5.41;100.00
36354;BME280;22383;51.114;13.666;2023-03-01T07:00:28;66603.53;;;-5.40;100.00
36354;BME280;22383;51.114;13.666;2023-03-01T07:02:58;66601.97;;;-5.46;100.00
36354;BME280;22383;51.114;13.666;2023-03-01T07:05:26;66591.56;;;-5.54;100.00
36354;BME280;22383;51.114;13.666;2023-03-01T07:07:53;66592.69;;;-5.53;100.00
36354;BME280;22383;51.114;13.666;2023-03-01T07:10:20;66609.81;;;-5.39;100.00
36354;BME280;22383;51.114;13.666;2023-03-01T07:12:47;66607.00;;;-5.42;100.00
36354;BME280;22383;51.114;13.666;2023-03-01T07:15:15;66618.75;;;-5.31;100.00
36354;BME280;22383;51.114;13.666;2023-03-01T07:17:42;66609.47;;;-5.37;100.00
36354;BME280;22383;51.114;13.666;2023-03-01T07:20:11;66619.31;;;-5.30;100.00
36354;BME280;22383;51.114;13.666;2023-03-01T07:22:42;66622.88;;;-5.25;100.00
36354;BME280;22383;51.114;13.666;2023-03-01T07:25:10;66635.53;;;-5.16;100.00
36354;BME280;22383;51.114;13.666;2023-03-01T07:27:37;66629.03;;;-5.19;100.00
36354;BME280;22383;51.114;13.666;2023-03-01T07:30:05;66637.44;;;-5.11;100.00
36354;BME280;22383;51.114;13.666;2023-03-01T07:32:32;66603.84;;;-5.00;100.00
36354;BME280;22383;51.114;13.666;2023-03-01T07:34:59;66672.13;;;-4.80;100.00
36354;BME280;22383;51.114;13.666;2023-03-01T07:37:26;66673.22;;;-4.79;100.00
36354;BME280;22383;51.114;13.666;2023-03-01T07:39:53;66683.31;;;-4.69;100.00
36354;BME280;22383;51.114;13.666;2023-03-01T07:42:20;66698.41;;;-4.56;100.00
36354;BME280;22383;51.114;13.666;2023-03-01T07:44:48;66709.19;;;-4.50;100.00
36354;BME280;22383;51.114;13.666;2023-03-01T07:47:15;66712.41;;;-4.43;100.00
36354;BME280;22383;51.114;13.666;2023-03-01T07:49:42;66743.00;;;-4.17;100.00
36354;BME280;22383;51.114;13.666;2023-03-01T07:52:10;66778.81;;;-3.84;100.00
36354;BME280;22383;51.114;13.666;2023-03-01T07:54:39;66833.00;;;-3.30;100.00
36354;BME280;22383;51.114;13.666;2023-03-01T07:57:06;66831.75;;;-2.95;100.00
36354;BME280;22383;51.114;13.666;2023-03-01T07:59:33;66882.69;;;-2.87;100.00
36354;BME280;22383;51.114;13.666;2023-03-01T08:02:00;66958.38;;;-2.17;100.00
36354;BME280;22383;51.114;13.666;2023-03-01T08:04:27;66987.53;;;-1.91;100.00
36354;BME280;22383;51.114;13.666;2023-03-01T08:07:05;66968.69;;;-2.05;100.00
36354;BME280;22383;51.114;13.666;2023-03-01T08:09:35;66950.19;;;-1.84;100.00
36354;BME280;22383;51.114;13.666;2023-03-01T08:12:05;66979.13;;;-1.98;100.00
36354;BME280;22383;51.114;13.666;2023-03-01T08:14:32;66977.44;;;-2.00;100.00
36354;BME280;22383;51.114;13.666;2023-03-01T08:16:59;66967.34;;;-2.09;100.00
36354;BME280;22383;51.114;13.666;2023-03-01T08:19:27;66980.81;;;-1.97;100.00
36354;BME280;22383;51.114;13.666;2023-03-01T08:21:54;67073.97;;;-1.11;100.00
36354;BME280;22383;51.114;13.666;2023-03-01T08:24:31;67211.00;;;0.14;100.00
36354;BME280;22383;51.114;13.666;2023-03-01T08:26:58;67332.13;;;1.27;100.00
36354;BME280;22383;51.114;13.666;2023-03-01T08:29:25;67406.19;;;1.92;100.00
36354;BME280;22383;51.114;13.666;2023-03-01T08:31:52;67393.81;;;1.81;100.00
36354;BME280;22383;51.114;13.666;2023-03-01T08:34:20;67409.63;;;2.02;100.00
36354;BME280;22383;51.114;13.666;2023-03-01T08:36:49;67385.59;;;1.76;100.00
36354;BME280;22383;51.114;13.666;2023-03-01T08:39:19;67326.84;;;1.20;100.00
36354;BME280;22383;51.114;13.666;2023-03-01T08:41:47;67288.25;;;0.87;100.00
36354;BME280;22383;51.114;13.666;2023-03-01T08:44:15;67306.03;;;1.01;100.00
36354;BME280;22383;51.114;13.666;2023-03-01T08:46:44;67350.28;;;1.39;100.00
36354;BME280;22383;51.114;13.666;2023-03-01T08:49:20;67395.16;;;1.84;100.00
36354;BME280;22383;51.114;13.666;2023-03-01T08:51:47;67404.72;;;1.93;100.00
36354;BME280;22383;51.114;13.666;2023-03-01T08:54:16;67417.47;;;2.02;100.00
36354;BME280;22383;51.114;13.666;2023-03-01T08:56:45;67400.22;;;1.89;100.00
36354;BME280;22383;51.114;13.666;2023-03-01T08:59:13;67377.13;;;1.68;100.00
36354;BME280;22383;51.114;13.666;2023-03-01T09:01:41;67351.25;;;1.44;100.00
36354;BME280;22383;51.114;13.666;2023-03-01T09:04:12;67410.34;;;1.98;100.00
36354;BME280;22383;51.114;13.666;2023-03-01T09:06:39;67496.50;;;2.77;100.00
36354;BME280;22383;51.114;13.666;2023-03-01T09:09:14;67594.91;;;3.64;100.00
36354;BME280;22383;51.114;13.666;2023-03-01T09:11:44;67587.56;;;3.57;100.00
36354;BME280;22383;51.114;13.666;2023-03-01T09:14:13;67546.84;;;3.25;100.00
36354;BME280;22383;51.114;13.666;2023-03-01T09:16:41;67574.81;;;3.48;100.00
36354;BME280;22383;51.114;13.666;2023-03-01T09:19:12;67592.50;;;3.67;100.00
36354;BME280;22383;51.114;13.666;2023-03-01T09:21:43;67687.03;;;4.50;100.00
36354;BME280;22383;51.114;13.666;2023-03-01T09:24:21;67687.78;;;4.53;100.00
36354;BME280;22383;51.114;13.666;2023-03-01T09:26:49;67631.75;;;4.00;100.00
36354;BME280;22383;51.114;13.666;2023-03-01T09:29:17;67697.75;;;4.60;100.00
36354;BME280;22383;51.114;13.666;2023-03-01T09:31:44;67738.75;;;4.95;100.00
36354;BME280;22383;51.114;13.666;2023-03-01T09:34:12;67701.69;;;4.64;100.00
36354;BME280;22383;51.114;13.666;2023-03-01T09:36:43;67699.81;;;4.60;100.00
36354;BME280;22383;51.114;13.666;2023-03-01T09:39:10;67660.88;;;4.24;100.00
36354;BME280;22383;51.114;13.666;2023-03-01T09:41:59;67691.19;;;4.57;100.00
36354;BME280;22383;51.114;13.666;2023-03-01T09:44:36;67590.59;;;3.63;100.00
36354;BME280;22383;51.114;13.666;2023-03-01T09:47:09;67620.28;;;3.87;100.00
36354;BME280;22383;51.114;13.666;2023-03-01T09:49:41;67636.47;;;4.07;100.00
36354;BME280;22383;51.114;13.666;2023-03-01T09:52:23;67669.34;;;4.32;100.00
36354;BME280;22383;51.114;13.666;2023-03-01T09:54:55;67699.81;;;4.60;100.00
36354;BME280;22383;51.114;13.666;2023-03-01T09:57:28;67707.72;;;4.67;100.00
36354;BME280;22383;51.114;13.666;2023-03-01T10:02:51;67744.22;;;5.05;99.37
36354;BME280;22383;51.114;13.666;2023-03-01T10:05:34;67791.44;;;5.45;96.62
36354;BME280;22383;51.114;13.666;2023-03-01T10:11:19;67657.91;;;4.26;96.02
36354;BME280;22383;51.114;13.666;2023-03-01T10:14:01;67667.66;;;4.30;99.06
36354;BME280;22383;51.114;13.666;2023-03-01T10:19:25;67571.25;;;3.43;100.00
36354;BME280;22383;51.114;13.666;2023-03-01T10:22:18;67559.97;;;3.32;100.00
36354;BME280;22383;51.114;13.666;2023-03-01T10:24:49;67527.84;;;3.03;100.00
36354;BME280;22383;51.114;13.666;2023-03-01T10:30:22;67572.75;;;3.49;100.00
36354;BME280;22383;51.114;13.666;2023-03-01T10:33:02;67579.84;;;3.46;100.00
36354;BME280;22383;51.114;13.666;2023-03-01T10:35:35;67583.06;;;3.53;100.00
36354;BME280;22383;51.114;13.666;2023-03-01T10:38:13;67561.28;;;3.36;100.00
36354;BME280;22383;51.114;13.666;2023-03-01T10:40:59;67583.47;;;3.58;100.00
36354;BME280;22383;51.114;13.666;2023-03-01T10:43:49;67562.97;;;3.37;100.00
36354;BME280;22383;51.114;13.666;2023-03-01T10:46:29;67530.31;;;3.08;100.00
36354;BME280;22383;51.114;13.666;2023-03-01T10:49:17;67539.09;;;3.13;100.00
36354;BME280;22383;51.114;13.666;2023-03-01T10:51:50;67534.25;;;3.11;100.00
36354;BME280;22383;51.114;13.666;2023-03-01T10:54:26;67552.44;;;3.23;100.00
36354;BME280;22383;51.114;13.666;2023-03-01T10:56:57;67570.31;;;3.44;100.00
36354;BME280;22383;51.114;13.666;2023-03-01T10:59:33;67564.13;;;3.38;100.00
36354;BME280;22383;51.114;13.666;2023-03-01T11:02:30;67561.66;;;3.34;100.00
36354;BME280;22383;51.114;13.666;2023-03-01T11:07:51;67561.50;;;3.38;100.00
36354;BME280;22383;51.114;13.666;2023-03-01T11:10:28;67570.69;;;3.42;100.00
36354;BME280;22383;51.114;13.666;2023-03-01T11:13:14;67569.19;;;3.43;100.00
36354;BME280;22383;51.114;13.666;2023-03-01T11:16:07;67580.81;;;3.51;100.00
36354;BME280;22383;51.114;13.666;2023-03-01T11:18:40;67599.97;;;3.69;99.84
36354;BME280;22383;51.114;13.666;2023-03-01T11:21:15;67597.16;;;3.66;97.13
36354;BME280;22383;51.114;13.666;2023-03-01T11:23:46;67589.25;;;3.59;93.49
36354;BME280;22383;51.114;13.666;2023-03-01T11:26:19;67582.50;;;3.53;96.48
36354;BME280;22383;51.114;13.666;2023-03-01T11:28:53;67601.69;;;3.70;99.60
36354;BME280;22383;51.114;13.666;2023-03-01T11:31:23;67617.25;;;3.82;100.00
36354;BME280;22383;51.114;13.666;2023-03-01T11:34:03;67639.81;;;4.03;99.98
36354;BME280;22383;51.114;13.666;2023-03-01T11:36:56;67639.66;;;4.07;93.34
36354;BME280;22383;51.114;13.666;2023-03-01T11:39:36;67648.69;;;4.15;91.43
36354;BME280;22383;51.114;13.666;2023-03-01T11:42:18;67684.03;;;4.45;93.85
36354;BME280;22383;51.114;13.666;2023-03-01T11:44:54;67674.63;;;4.39;92.19
36354;BME280;22383;51.114;13.666;2023-03-01T11:47:37;67673.28;;;4.35;91.99
36354;BME280;22383;51.114;13.666;2023-03-01T11:55:52;67620.28;;;3.87;92.31
36354;BME280;22383;51.114;13.666;2023-03-01T11:58:40;67648.47;;;4.13;90.09
36354;BME280;22383;51.114;13.666;2023-03-01T12:01:29;67659.75;;;4.23;89.54
36354;BME280;22383;51.114;13.666;2023-03-01T12:04:17;67637.19;;;4.03;85.88
36354;BME280;22383;51.114;13.666;2023-03-01T12:10:14;67594.53;;;3.66;90.14
36354;BME280;22383;51.114;13.666;2023-03-01T12:12:58;67599.63;;;3.71;90.66
36354;BME280;22383;51.114;13.666;2023-03-01T12:18:44;67584.41;;;3.57;92.29
36354;BME280;22383;51.114;13.666;2023-03-01T12:24:28;67564.13;;;3.38;99.25
36354;BME280;22383;51.114;13.666;2023-03-01T12:30:01;67563.53;;;3.38;99.52
36354;BME280;22383;51.114;13.666;2023-03-01T12:44:00;67527.84;;;3.03;96.19
36354;BME280;22383;51.114;13.666;2023-03-01T12:49:18;67535.16;;;3.10;97.62
36354;BME280;22383;51.114;13.666;2023-03-01T12:51:55;67525.38;;;2.98;96.81
36354;BME280;22383;51.114;13.666;2023-03-01T12:54:31;67519.41;;;2.95;95.93
36354;BME280;22383;51.114;13.666;2023-03-01T12:57:28;67530.09;;;3.05;97.22
36354;BME280;22383;51.114;13.666;2023-03-01T13:00:40;67542.84;;;3.14;100.00
36354;BME280;22383;51.114;13.666;2023-03-01T13:03:32;67550.00;;;3.26;99.11
36354;BME280;22383;51.114;13.666;2023-03-01T13:06:45;67539.88;;;3.16;97.74
36354;BME280;22383;51.114;13.666;2023-03-01T13:12:52;67556.56;;;3.29;96.12
36354;BME280;22383;51.114;13.666;2023-03-01T13:15:30;67555.88;;;3.33;97.01
36354;BME280;22383;51.114;13.666;2023-03-01T13:18:26;67552.28;;;3.28;98.27
36354;BME280;22383;51.114;13.666;2023-03-01T13:20:58;67544.97;;;3.21;93.91
36354;BME280;22383;51.114;13.666;2023-03-01T13:23:37;67552.84;;;3.28;100.00
36354;BME280;22383;51.114;13.666;2023-03-01T13:26:10;67561.84;;;3.36;99.89
36354;BME280;22383;51.114;13.666;2023-03-01T13:28:40;67562.56;;;3.32;100.00
36354;BME280;22383;51.114;13.666;2023-03-01T13:34:01;67559.97;;;3.32;100.00
36354;BME280;22383;51.114;13.666;2023-03-01T13:41:58;67552.28;;;3.28;99.08
36354;BME280;22383;51.114;13.666;2023-03-01T13:44:33;67547.34;;;3.18;94.58
36354;BME280;22383;51.114;13.666;2023-03-01T13:49:42;67555.09;;;3.30;95.21
36354;BME280;22383;51.114;13.666;2023-03-01T13:52:43;67565.44;;;3.42;92.93
36354;BME280;22383;51.114;13.666;2023-03-01T13:55:16;67561.66;;;3.34;91.25
36354;BME280;22383;51.114;13.666;2023-03-01T13:57:49;67572.56;;;3.46;91.60
36354;BME280;22383;51.114;13.666;2023-03-01T14:00:35;67553.97;;;3.29;91.57
36354;BME280;22383;51.114;13.666;2023-03-01T14:03:14;67561.84;;;3.36;90.98
36354;BME280;22383;51.114;13.666;2023-03-01T14:05:57;67572.34;;;3.44;91.10
36354;BME280;22383;51.114;13.666;2023-03-01T14:08:38;67578.75;;;3.52;94.12
36354;BME280;22383;51.114;13.666;2023-03-01T14:16:58;67573.50;;;3.45;85.76
36354;BME280;22383;51.114;13.666;2023-03-01T14:19:29;67560.72;;;3.35;85.57
36354;BME280;22383;51.114;13.666;2023-03-01T14:24:34;67569.69;;;3.36;89.46
36354;BME280;22383;51.114;13.666;2023-03-01T14:27:12;67562.78;;;3.35;88.30
36354;BME280;22383;51.114;13.666;2023-03-01T14:29:44;67563.34;;;3.35;88.06
36354;BME280;22383;51.114;13.666;2023-03-01T14:32:25;67551.72;;;3.27;85.08
36354;BME280;22383;51.114;13.666;2023-03-01T14:34:54;67561.84;;;3.36;86.90